sensor_id;sensor_type;location;lat;lon;timestamp;pressure;altitude;pressure_sealevel;temperature;humidity
6387;BME280;3226;42.162;24.756;2023-06-01T00:02:23;99746.53;;;18.21;89.73
6387;BME280;3226;42.162;24.756;2023-06-01T00:04:53;99744.66;;;18.30;88.79
6387;BME280;3226;42.162;24.756;2023-06-01T00:07:21;99742.81;;;18.30;88.30
6387;BME280;3226;42.162;24.756;2023-06-01T00:09:52;99745.66;;;18.29;88.37
6387;BME280;3226;42.162;24.756;2023-06-01T00:12:20;99736.75;;;18.22;88.45
6387;BME280;3226;42.162;24.756;2023-06-01T00:14:47;99749.81;;;18.23;88.87
6387;BME280;3226;42.162;24.756;2023-06-01T00:17:16;99743.00;;;18.29;88.45
6387;BME280;3226;42.162;24.756;2023-06-01T00:19:44;99746.00;;;18.26;88.47
6387;BME280;3226;42.162;24.756;2023-06-01T00:22:12;99746.03;;;18.17;88.71
6387;BME280;3226;42.162;24.756;2023-06-01T00:24:39;99745.09;;;18.10;88.79
6387;BME280;3226;42.162;24.756;2023-06-01T00:27:09;99749.69;;;18.16;87.53
6387;BME280;3226;42.162;24.756;2023-06-01T00:29:37;99747.38;;;18.13;86.63
6387;BME280;3226;42.162;24.756;2023-06-01T00:32:06;99739.56;;;17.88;87.28
6387;BME280;3226;42.162;24.756;2023-06-01T00:34:34;99738.06;;;17.86;86.53
6387;BME280;3226;42.162;24.756;2023-06-01T00:37:02;99748.66;;;17.86;86.41
6387;BME280;3226;42.162;24.756;2023-06-01T00:39:30;99742.91;;;17.74;86.95
6387;BME280;3226;42.162;24.756;2023-06-01T00:41:58;99749.50;;;17.78;88.21
6387;BME280;3226;42.162;24.756;2023-06-01T00:44:28;99755.81;;;17.77;87.45
6387;BME280;3226;42.162;24.756;2023-06-01T00:46:56;99744.75;;;17.73;87.21
6387;BME280;3226;42.162;24.756;2023-06-01T00:49:26;99750.56;;;17.60;88.05
6387;BME280;3226;42.162;24.756;2023-06-01T00:51:54;99748.63;;;17.46;88.97
6387;BME280;3226;42.162;24.756;2023-06-01T00:54:22;99753.63;;;17.32;89.44
6387;BME280;3226;42.162;24.756;2023-06-01T00:56:50;99753.63;;;17.32;90.59
6387;BME280;3226;42.162;24.756;2023-06-01T00:59:19;99749.81;;;17.35;90.34
6387;BME280;3226;42.162;24.756;2023-06-01T01:01:49;99750.97;;;17.32;90.94
6387;BME280;3226;42.162;24.756;2023-06-01T01:04:19;99747.81;;;17.29;91.42
6387;BME280;3226;42.162;24.756;2023-06-01T01:06:56;99755.59;;;17.30;90.21
6387;BME280;3226;42.162;24.756;2023-06-01T01:09:32;99751.00;;;17.16;90.94
6387;BME280;3226;42.162;24.756;2023-06-01T01:12:07;99760.78;;;16.99;92.58
6387;BME280;3226;42.162;24.756;2023-06-01T01:14:42;99753.50;;;17.01;92.61
6387;BME280;3226;42.162;24.756;2023-06-01T01:17:26;99754.31;;;17.01;92.81
6387;BME280;3226;42.162;24.756;2023-06-01T01:20:02;99760.78;;;16.99;92.76
6387;BME280;3226;42.162;24.756;2023-06-01T01:23:05;99764.91;;;17.01;93.19
6387;BME280;3226;42.162;24.756;2023-06-01T01:25:59;99755.59;;;16.97;93.66
6387;BME280;3226;42.162;24.756;2023-06-01T01:28:37;99758.13;;;16.99;93.38
6387;BME280;3226;42.162;24.756;2023-06-01T01:31:09;99750.81;;;16.92;94.75
6387;BME280;3226;42.162;24.756;2023-06-01T01:33:41;99758.75;;;16.92;95.13
6387;BME280;3226;42.162;24.756;2023-06-01T01:36:10;99747.50;;;16.90;94.74
6387;BME280;3226;42.162;24.756;2023-06-01T01:38:38;99763.56;;;16.89;94.62
6387;BME280;3226;42.162;24.756;2023-06-01T01:41:06;99668.00;;;16.34;94.19
6387;BME280;3226;42.162;24.756;2023-06-01T01:43:37;99760.06;;;16.80;95.15
6387;BME280;3226;42.162;24.756;2023-06-01T01:46:13;99761.72;;;16.73;95.76
6387;BME280;3226;42.162;24.756;2023-06-01T01:48:48;99758.56;;;16.69;95.44
6387;BME280;3226;42.162;24.756;2023-06-01T01:51:22;99761.41;;;16.68;96.43
6387;BME280;3226;42.162;24.756;2023-06-01T01:53:55;99734.28;;;16.49;96.51
6387;BME280;3226;42.162;24.756;2023-06-01T01:56:24;99759.22;;;16.71;96.47
6387;BME280;3226;42.162;24.756;2023-06-01T01:58:55;99772.50;;;16.80;95.91
6387;BME280;3226;42.162;24.756;2023-06-01T02:01:23;99769.16;;;16.77;97.04
6387;BME280;3226;42.162;24.756;2023-06-01T02:04:01;99775.59;;;16.75;96.68
6387;BME280;3226;42.162;24.756;2023-06-01T02:06:30;99776.41;;;16.75;96.46
6387;BME280;3226;42.162;24.756;2023-06-01T02:08:59;99773.97;;;16.74;97.02
6387;BME280;3226;42.162;24.756;2023-06-01T02:11:27;99778.41;;;16.73;97.69
6387;BME280;3226;42.162;24.756;2023-06-01T02:13:57;99780.91;;;16.67;98.09
6387;BME280;3226;42.162;24.756;2023-06-01T02:16:25;99776.41;;;16.59;98.15
6387;BME280;3226;42.162;24.756;2023-06-01T02:18:53;99784.34;;;16.59;98.27
6387;BME280;3226;42.162;24.756;2023-06-01T02:21:24;99766.16;;;16.56;97.54
6387;BME280;3226;42.162;24.756;2023-06-01T02:23:52;99786.34;;;16.57;98.91
6387;BME280;3226;42.162;24.756;2023-06-01T02:26:20;99782.50;;;16.51;99.35
6387;BME280;3226;42.162;24.756;2023-06-01T02:28:49;99782.84;;;16.48;98.89
6387;BME280;3226;42.162;24.756;2023-06-01T02:31:18;99787.66;;;16.53;98.43
6387;BME280;3226;42.162;24.756;2023-06-01T02:33:47;99783.03;;;16.55;98.87
6387;BME280;3226;42.162;24.756;2023-06-01T02:36:15;99787.97;;;16.58;98.58
6387;BME280;3226;42.162;24.756;2023-06-01T02:38:43;99782.84;;;16.56;97.25
6387;BME280;3226;42.162;24.756;2023-06-01T02:41:11;99785.66;;;16.55;97.54
6387;BME280;3226;42.162;24.756;2023-06-01T02:43:39;99783.81;;;16.47;98.53
6387;BME280;3226;42.162;24.756;2023-06-01T02:46:07;99782.34;;;16.44;99.21
6387;BME280;3226;42.162;24.756;2023-06-01T02:48:37;99784.81;;;16.46;99.09
6387;BME280;3226;42.162;24.756;2023-06-01T02:51:05;99779.97;;;16.25;99.86
6387;BME280;3226;42.162;24.756;2023-06-01T02:53:33;99780.31;;;16.22;100.00
6387;BME280;3226;42.162;24.756;2023-06-01T02:56:01;99790.34;;;16.18;100.00
6387;BME280;3226;42.162;24.756;2023-06-01T02:58:29;99790.75;;;16.31;100.00
6387;BME280;3226;42.162;24.756;2023-06-01T03:00:57;99784.28;;;16.34;100.00
6387;BME280;3226;42.162;24.756;2023-06-01T03:03:26;99787.44;;;16.38;100.00
6387;BME280;3226;42.162;24.756;2023-06-01T03:05:55;99783.97;;;16.37;100.00
6387;BME280;3226;42.162;24.756;2023-06-01T03:08:23;99771.53;;;16.21;100.00
6387;BME280;3226;42.162;24.756;2023-06-01T03:10:52;99782.31;;;16.36;100.00
6387;BME280;3226;42.162;24.756;2023-06-01T03:13:20;99770.22;;;16.25;98.87
6387;BME280;3226;42.162;24.756;2023-06-01T03:15:48;99786.91;;;16.26;98.80
6387;BME280;3226;42.162;24.756;2023-06-01T03:18:18;99791.50;;;16.15;99.09
6387;BME280;3226;42.162;24.756;2023-06-01T03:20:46;99790.88;;;16.22;99.87
6387;BME280;3226;42.162;24.756;2023-06-01T03:23:16;99789.69;;;16.16;100.00
6387;BME280;3226;42.162;24.756;2023-06-01T03:25:44;99797.78;;;16.14;100.00
6387;BME280;3226;42.162;24.756;2023-06-01T03:28:12;99797.28;;;16.19;99.67
6387;BME280;3226;42.162;24.756;2023-06-01T03:30:40;99807.38;;;16.24;99.69
6387;BME280;3226;42.162;24.756;2023-06-01T03:33:09;99803.44;;;16.36;98.91
6387;BME280;3226;42.162;24.756;2023-06-01T03:35:37;99807.44;;;16.40;98.97
6387;BME280;3226;42.162;24.756;2023-06-01T03:38:05;99807.94;;;16.36;99.06
6387;BME280;3226;42.162;24.756;2023-06-01T03:40:34;99811.72;;;16.41;97.96
6387;BME280;3226;42.162;24.756;2023-06-01T03:43:03;99801.84;;;16.52;97.63
6387;BME280;3226;42.162;24.756;2023-06-01T03:45:31;99812.44;;;16.52;97.50
6387;BME280;3226;42.162;24.756;2023-06-01T03:47:59;99815.22;;;16.50;97.85
6387;BME280;3226;42.162;24.756;2023-06-01T03:50:27;99813.91;;;16.54;97.91
6387;BME280;3226;42.162;24.756;2023-06-01T03:52:55;99820.88;;;16.64;98.18
6387;BME280;3226;42.162;24.756;2023-06-01T03:55:23;99805.84;;;16.64;97.30
6387;BME280;3226;42.162;24.756;2023-06-01T03:57:53;99802.72;;;16.69;97.26
6387;BME280;3226;42.162;24.756;2023-06-01T04:00:21;99804.19;;;16.71;96.73
6387;BME280;3226;42.162;24.756;2023-06-01T04:02:52;99815.09;;;16.76;95.66
6387;BME280;3226;42.162;24.756;2023-06-01T04:05:23;99803.53;;;16.69;94.96
6387;BME280;3226;42.162;24.756;2023-06-01T04:07:54;99806.84;;;16.71;95.20
6387;BME280;3226;42.162;24.756;2023-06-01T04:10:22;99812.47;;;16.85;94.79
6387;BME280;3226;42.162;24.756;2023-06-01T04:12:50;99814.78;;;16.80;93.44
6387;BME280;3226;42.162;24.756;2023-06-01T04:15:20;99820.75;;;16.90;92.33
6387;BME280;3226;42.162;24.756;2023-06-01T04:17:48;99818.78;;;17.09;92.40
6387;BME280;3226;42.162;24.756;2023-06-01T04:20:16;99818.97;;;17.15;91.06
6387;BME280;3226;42.162;24.756;2023-06-01T04:22:45;99819.63;;;17.26;89.78
6387;BME280;3226;42.162;24.756;2023-06-01T04:25:15;99819.47;;;17.27;89.98
6387;BME280;3226;42.162;24.756;2023-06-01T04:27:46;99806.72;;;17.23;88.79
6387;BME280;3226;42.162;24.756;2023-06-01T04:30:15;99824.72;;;17.44;87.81
6387;BME280;3226;42.162;24.756;2023-06-01T04:32:46;99820.41;;;17.59;88.15
6387;BME280;3226;42.162;24.756;2023-06-01T04:35:16;99802.06;;;17.49;86.95
6387;BME280;3226;42.162;24.756;2023-06-01T04:37:44;99798.91;;;17.54;86.93
6387;BME280;3226;42.162;24.756;2023-06-01T04:40:13;99818.25;;;17.71;86.12
6387;BME280;3226;42.162;24.756;2023-06-01T04:42:42;99831.38;;;17.96;85.22
6387;BME280;3226;42.162;24.756;2023-06-01T04:45:12;99829.38;;;18.15;84.56
6387;BME280;3226;42.162;24.756;2023-06-01T04:47:42;99827.66;;;18.30;83.94
6387;BME280;3226;42.162;24.756;2023-06-01T04:50:13;99831.22;;;18.46;83.34
6387;BME280;3226;42.162;24.756;2023-06-01T04:52:43;99835.47;;;18.55;82.39
6387;BME280;3226;42.162;24.756;2023-06-01T04:55:11;99819.91;;;18.52;82.08
6387;BME280;3226;42.162;24.756;2023-06-01T04:57:40;99834.72;;;18.70;82.02
6387;BME280;3226;42.162;24.756;2023-06-01T05:00:11;99841.00;;;18.77;80.70
6387;BME280;3226;42.162;24.756;2023-06-01T05:02:40;99828.53;;;18.77;81.12
6387;BME280;3226;42.162;24.756;2023-06-01T05:05:09;99839.34;;;18.76;81.11
6387;BME280;3226;42.162;24.756;2023-06-01T05:07:40;99835.84;;;18.75;81.62
6387;BME280;3226;42.162;24.756;2023-06-01T05:10:10;99834.06;;;18.91;81.36
6387;BME280;3226;42.162;24.756;2023-06-01T05:12:38;99840.03;;;19.01;80.65
6387;BME280;3226;42.162;24.756;2023-06-01T05:15:08;99845.97;;;19.03;80.75
6387;BME280;3226;42.162;24.756;2023-06-01T05:17:38;99823.47;;;18.91;80.97
6387;BME280;3226;42.162;24.756;2023-06-01T05:20:07;99838.13;;;19.10;80.81
6387;BME280;3226;42.162;24.756;2023-06-01T05:22:39;99839.16;;;19.24;79.85
6387;BME280;3226;42.162;24.756;2023-06-01T05:25:08;99842.22;;;19.36;79.32
6387;BME280;3226;42.162;24.756;2023-06-01T05:27:37;99838.19;;;19.40;80.91
6387;BME280;3226;42.162;24.756;2023-06-01T05:30:06;99843.06;;;19.36;80.09
6387;BME280;3226;42.162;24.756;2023-06-01T05:32:34;99841.41;;;19.35;79.83
6387;BME280;3226;42.162;24.756;2023-06-01T05:35:03;99839.31;;;19.46;80.53
6387;BME280;3226;42.162;24.756;2023-06-01T05:37:32;99837.94;;;19.50;80.11
6387;BME280;3226;42.162;24.756;2023-06-01T05:40:02;99840.44;;;19.52;79.74
6387;BME280;3226;42.162;24.756;2023-06-01T05:42:34;99837.03;;;19.58;79.17
6387;BME280;3226;42.162;24.756;2023-06-01T05:45:03;99840.13;;;19.61;79.33
6387;BME280;3226;42.162;24.756;2023-06-01T05:47:31;99843.22;;;19.35;78.95
6387;BME280;3226;42.162;24.756;2023-06-01T05:49:59;99835.34;;;19.27;79.25
6387;BME280;3226;42.162;24.756;2023-06-01T05:52:27;99837.38;;;19.40;78.32
6387;BME280;3226;42.162;24.756;2023-06-01T05:54:55;99843.09;;;19.67;77.18
6387;BME280;3226;42.162;24.756;2023-06-01T05:57:24;99847.59;;;19.81;76.54
6387;BME280;3226;42.162;24.756;2023-06-01T05:59:52;99831.69;;;19.96;75.00
6387;BME280;3226;42.162;24.756;2023-06-01T06:02:20;99843.41;;;20.17;73.80
6387;BME280;3226;42.162;24.756;2023-06-01T06:04:48;99822.78;;;20.04;74.41
6387;BME280;3226;42.162;24.756;2023-06-01T06:07:16;99844.69;;;20.21;74.91
6387;BME280;3226;42.162;24.756;2023-06-01T06:09:44;99836.69;;;20.36;73.89
6387;BME280;3226;42.162;24.756;2023-06-01T06:12:12;99841.50;;;20.47;73.24
6387;BME280;3226;42.162;24.756;2023-06-01T06:14:42;99844.97;;;20.48;72.48
6387;BME280;3226;42.162;24.756;2023-06-01T06:17:10;99831.13;;;20.52;69.72
6387;BME280;3226;42.162;24.756;2023-06-01T06:19:38;99843.19;;;20.70;69.25
6387;BME280;3226;42.162;24.756;2023-06-01T06:22:06;99849.69;;;20.83;69.22
6387;BME280;3226;42.162;24.756;2023-06-01T06:24:34;99852.81;;;20.86;68.88
6387;BME280;3226;42.162;24.756;2023-06-01T06:27:02;99829.09;;;20.91;69.97
6387;BME280;3226;42.162;24.756;2023-06-01T06:29:30;99843.09;;;21.00;69.85
6387;BME280;3226;42.162;24.756;2023-06-01T06:32:02;99819.97;;;21.01;69.78
6387;BME280;3226;42.162;24.756;2023-06-01T06:34:31;99835.03;;;21.15;69.28
6387;BME280;3226;42.162;24.756;2023-06-01T06:37:03;99834.06;;;21.23;67.63
6387;BME280;3226;42.162;24.756;2023-06-01T06:39:31;99834.31;;;21.28;68.52
6387;BME280;3226;42.162;24.756;2023-06-01T06:42:00;99830.63;;;21.29;69.27
6387;BME280;3226;42.162;24.756;2023-06-01T06:44:29;99837.84;;;21.35;69.26
6387;BME280;3226;42.162;24.756;2023-06-01T06:46:58;99840.56;;;21.42;68.55
6387;BME280;3226;42.162;24.756;2023-06-01T06:49:30;99833.28;;;21.51;66.73
6387;BME280;3226;42.162;24.756;2023-06-01T06:51:58;99834.13;;;21.58;66.80
6387;BME280;3226;42.162;24.756;2023-06-01T06:54:26;99838.78;;;21.21;65.94
6387;BME280;3226;42.162;24.756;2023-06-01T06:56:54;99821.63;;;21.02;66.42
6387;BME280;3226;42.162;24.756;2023-06-01T06:59:22;99836.81;;;21.30;66.83
6387;BME280;3226;42.162;24.756;2023-06-01T07:01:50;99828.09;;;21.43;65.92
6387;BME280;3226;42.162;24.756;2023-06-01T07:04:18;99829.06;;;21.35;64.80
6387;BME280;3226;42.162;24.756;2023-06-01T07:06:48;99833.13;;;21.59;63.75
6387;BME280;3226;42.162;24.756;2023-06-01T07:09:17;99822.91;;;21.63;64.18
6387;BME280;3226;42.162;24.756;2023-06-01T07:11:45;99828.91;;;21.43;65.25
6387;BME280;3226;42.162;24.756;2023-06-01T07:14:14;99823.88;;;21.55;64.39
6387;BME280;3226;42.162;24.756;2023-06-01T07:16:42;99820.91;;;21.72;64.14
6387;BME280;3226;42.162;24.756;2023-06-01T07:19:11;99817.38;;;21.93;63.22
6387;BME280;3226;42.162;24.756;2023-06-01T07:21:39;99813.69;;;22.01;64.13
6387;BME280;3226;42.162;24.756;2023-06-01T07:24:09;99812.63;;;21.60;62.29
6387;BME280;3226;42.162;24.756;2023-06-01T07:26:37;99812.41;;;21.61;63.45
6387;BME280;3226;42.162;24.756;2023-06-01T07:29:05;99816.03;;;21.47;63.55
6387;BME280;3226;42.162;24.756;2023-06-01T07:31:33;99809.13;;;21.59;63.98
6387;BME280;3226;42.162;24.756;2023-06-01T07:34:02;99816.88;;;21.76;62.92
6387;BME280;3226;42.162;24.756;2023-06-01T07:36:30;99789.81;;;21.79;63.42
6387;BME280;3226;42.162;24.756;2023-06-01T07:39:04;99814.75;;;22.06;63.65
6387;BME280;3226;42.162;24.756;2023-06-01T07:41:37;99810.09;;;22.29;63.08
6387;BME280;3226;42.162;24.756;2023-06-01T07:44:06;99808.50;;;22.41;62.78
6387;BME280;3226;42.162;24.756;2023-06-01T07:46:34;99804.25;;;22.60;62.45
6387;BME280;3226;42.162;24.756;2023-06-01T07:49:02;99791.16;;;22.65;62.58
6387;BME280;3226;42.162;24.756;2023-06-01T07:51:30;99797.94;;;22.81;61.22
6387;BME280;3226;42.162;24.756;2023-06-01T07:53:59;99796.50;;;22.92;60.16
6387;BME280;3226;42.162;24.756;2023-06-01T07:56:28;99797.72;;;22.70;60.43
6387;BME280;3226;42.162;24.756;2023-06-01T07:58:57;99785.16;;;22.50;60.72
6387;BME280;3226;42.162;24.756;2023-06-01T08:01:25;99782.09;;;22.53;60.25
6387;BME280;3226;42.162;24.756;2023-06-01T08:03:53;99797.56;;;22.22;60.15
6387;BME280;3226;42.162;24.756;2023-06-01T08:06:22;99795.72;;;22.23;61.43
6387;BME280;3226;42.162;24.756;2023-06-01T08:08:51;99789.91;;;22.55;60.85
6387;BME280;3226;42.162;24.756;2023-06-01T08:11:20;99787.41;;;22.53;61.77
6387;BME280;3226;42.162;24.756;2023-06-01T08:13:50;99786.53;;;22.32;61.17
6387;BME280;3226;42.162;24.756;2023-06-01T08:16:19;99784.53;;;22.48;61.15
6387;BME280;3226;42.162;24.756;2023-06-01T08:18:47;99784.56;;;22.68;60.21
6387;BME280;3226;42.162;24.756;2023-06-01T08:21:15;99785.84;;;22.86;60.33
6387;BME280;3226;42.162;24.756;2023-06-01T08:23:44;99788.28;;;22.80;58.91
6387;BME280;3226;42.162;24.756;2023-06-01T08:26:13;99784.19;;;22.78;58.93
6387;BME280;3226;42.162;24.756;2023-06-01T08:28:41;99784.81;;;22.87;59.65
6387;BME280;3226;42.162;24.756;2023-06-01T08:31:14;99776.38;;;23.03;59.59
6387;BME280;3226;42.162;24.756;2023-06-01T08:33:44;99790.97;;;23.01;61.45
6387;BME280;3226;42.162;24.756;2023-06-01T08:36:12;99784.78;;;23.14;61.21
6387;BME280;3226;42.162;24.756;2023-06-01T08:38:40;99785.81;;;23.39;61.63
6387;BME280;3226;42.162;24.756;2023-06-01T08:41:16;99779.63;;;23.52;61.24
6387;BME280;3226;42.162;24.756;2023-06-01T08:43:50;99784.78;;;23.54;60.33
6387;BME280;3226;42.162;24.756;2023-06-01T08:46:21;99771.78;;;23.64;58.91
6387;BME280;3226;42.162;24.756;2023-06-01T08:48:53;99776.34;;;23.57;58.34
6387;BME280;3226;42.162;24.756;2023-06-01T08:51:22;99777.63;;;23.34;57.27
6387;BME280;3226;42.162;24.756;2023-06-01T08:53:51;99773.50;;;23.32;56.93
6387;BME280;3226;42.162;24.756;2023-06-01T08:56:19;99759.34;;;23.31;56.49
6387;BME280;3226;42.162;24.756;2023-06-01T08:58:49;99766.88;;;23.61;58.69
6387;BME280;3226;42.162;24.756;2023-06-01T09:01:19;99761.66;;;23.80;57.94
6387;BME280;3226;42.162;24.756;2023-06-01T09:03:48;99758.94;;;23.93;58.17
6387;BME280;3226;42.162;24.756;2023-06-01T09:06:18;99748.34;;;23.73;53.99
6387;BME280;3226;42.162;24.756;2023-06-01T09:08:47;99742.06;;;23.93;54.91
6387;BME280;3226;42.162;24.756;2023-06-01T09:11:17;99757.06;;;24.07;53.03
6387;BME280;3226;42.162;24.756;2023-06-01T09:13:45;99756.41;;;24.12;54.15
6387;BME280;3226;42.162;24.756;2023-06-01T09:16:12;99759.41;;;23.83;52.95
6387;BME280;3226;42.162;24.756;2023-06-01T09:18:50;99754.41;;;24.01;53.95
6387;BME280;3226;42.162;24.756;2023-06-01T09:21:21;99752.28;;;24.16;52.87
6387;BME280;3226;42.162;24.756;2023-06-01T09:23:49;99749.38;;;24.24;46.58
6387;BME280;3226;42.162;24.756;2023-06-01T09:26:17;99746.38;;;24.39;49.46
6387;BME280;3226;42.162;24.756;2023-06-01T09:28:56;99747.06;;;24.28;47.38
6387;BME280;3226;42.162;24.756;2023-06-01T09:31:38;99740.41;;;24.37;47.92
6387;BME280;3226;42.162;24.756;2023-06-01T09:34:08;99740.63;;;24.36;48.41
6387;BME280;3226;42.162;24.756;2023-06-01T09:36:39;99740.31;;;24.25;46.87
6387;BME280;3226;42.162;24.756;2023-06-01T09:39:08;99726.25;;;24.30;46.77
6387;BME280;3226;42.162;24.756;2023-06-01T09:41:48;99735.97;;;24.57;43.85
6387;BME280;3226;42.162;24.756;2023-06-01T09:44:24;99725.72;;;25.04;44.49
6387;BME280;3226;42.162;24.756;2023-06-01T09:46:54;99729.75;;;24.63;41.73
6387;BME280;3226;42.162;24.756;2023-06-01T09:49:25;99733.19;;;24.70;42.40
6387;BME280;3226;42.162;24.756;2023-06-01T09:52:09;99723.72;;;24.74;45.42
6387;BME280;3226;42.162;24.756;2023-06-01T09:54:41;99724.53;;;24.75;46.38
6387;BME280;3226;42.162;24.756;2023-06-01T09:57:10;99729.13;;;24.93;45.67
6387;BME280;3226;42.162;24.756;2023-06-01T09:59:40;99718.72;;;25.03;45.63
6387;BME280;3226;42.162;24.756;2023-06-01T10:02:12;99715.91;;;24.98;42.53
6387;BME280;3226;42.162;24.756;2023-06-01T10:04:44;99717.16;;;24.95;45.43
6387;BME280;3226;42.162;24.756;2023-06-01T10:07:15;99714.28;;;24.65;45.01
6387;BME280;3226;42.162;24.756;2023-06-01T10:09:45;99711.34;;;24.73;44.17
6387;BME280;3226;42.162;24.756;2023-06-01T10:12:14;99709.09;;;24.77;44.45
6387;BME280;3226;42.162;24.756;2023-06-01T10:14:42;99708.81;;;24.85;44.60
6387;BME280;3226;42.162;24.756;2023-06-01T10:17:11;99697.84;;;24.87;42.73
6387;BME280;3226;42.162;24.756;2023-06-01T10:19:41;99708.25;;;24.69;43.02
6387;BME280;3226;42.162;24.756;2023-06-01T10:22:09;99702.72;;;24.71;43.02
6387;BME280;3226;42.162;24.756;2023-06-01T10:24:40;99700.38;;;24.81;43.05
6387;BME280;3226;42.162;24.756;2023-06-01T10:27:15;99702.91;;;24.76;42.72
6387;BME280;3226;42.162;24.756;2023-06-01T10:29:46;99687.03;;;25.00;43.55
6387;BME280;3226;42.162;24.756;2023-06-01T10:32:45;99677.94;;;25.01;42.41
6387;BME280;3226;42.162;24.756;2023-06-01T10:38:25;99672.66;;;24.94;42.06
6387;BME280;3226;42.162;24.756;2023-06-01T10:41:28;99669.09;;;25.19;40.83
6387;BME280;3226;42.162;24.756;2023-06-01T10:43:58;99666.06;;;24.97;41.59
6387;BME280;3226;42.162;24.756;2023-06-01T10:46:42;99670.06;;;25.06;42.06
6387;BME280;3226;42.162;24.756;2023-06-01T10:49:11;99665.44;;;25.14;41.45
6387;BME280;3226;42.162;24.756;2023-06-01T10:51:39;99658.69;;;25.11;41.33
6387;BME280;3226;42.162;24.756;2023-06-01T10:54:37;99654.53;;;25.15;41.35
6387;BME280;3226;42.162;24.756;2023-06-01T10:57:20;99652.66;;;25.16;40.45
6387;BME280;3226;42.162;24.756;2023-06-01T11:02:55;99641.94;;;24.97;40.50
6387;BME280;3226;42.162;24.756;2023-06-01T11:05:38;99647.00;;;25.05;39.59
6387;BME280;3226;42.162;24.756;2023-06-01T11:08:06;99635.69;;;25.22;40.00
6387;BME280;3226;42.162;24.756;2023-06-01T11:10:54;99627.25;;;25.37;39.43
6387;BME280;3226;42.162;24.756;2023-06-01T11:13:27;99639.44;;;25.70;40.69
6387;BME280;3226;42.162;24.756;2023-06-01T11:16:27;99635.06;;;25.57;41.34
6387;BME280;3226;42.162;24.756;2023-06-01T11:18:57;99626.75;;;25.47;40.09
6387;BME280;3226;42.162;24.756;2023-06-01T11:21:30;99622.56;;;25.51;40.22
6387;BME280;3226;42.162;24.756;2023-06-01T11:24:03;99616.94;;;25.71;40.83
6387;BME280;3226;42.162;24.756;2023-06-01T11:26:34;99621.72;;;26.00;38.72
6387;BME280;3226;42.162;24.756;2023-06-01T11:29:12;99609.47;;;26.04;37.99
6387;BME280;3226;42.162;24.756;2023-06-01T11:31:42;99605.50;;;26.06;37.64
6387;BME280;3226;42.162;24.756;2023-06-01T11:34:14;99591.03;;;26.07;38.83
6387;BME280;3226;42.162;24.756;2023-06-01T11:36:44;99588.88;;;26.28;37.50
6387;BME280;3226;42.162;24.756;2023-06-01T11:39:19;99578.47;;;26.32;37.98
6387;BME280;3226;42.162;24.756;2023-06-01T11:41:50;99576.69;;;26.02;37.59
6387;BME280;3226;42.162;24.756;2023-06-01T11:44:20;99585.28;;;25.92;38.26
6387;BME280;3226;42.162;24.756;2023-06-01T11:46:56;99563.25;;;25.90;36.90
6387;BME280;3226;42.162;24.756;2023-06-01T11:49:24;99558.50;;;25.61;38.49
6387;BME280;3226;42.162;24.756;2023-06-01T11:51:52;99583.13;;;25.70;37.94
6387;BME280;3226;42.162;24.756;2023-06-01T11:54:23;99565.47;;;25.93;37.51
6387;BME280;3226;42.162;24.756;2023-06-01T11:56:54;99561.41;;;26.14;37.04
6387;BME280;3226;42.162;24.756;2023-06-01T11:59:26;99563.78;;;26.22;36.69
6387;BME280;3226;42.162;24.756;2023-06-01T12:01:55;99558.50;;;26.04;34.63
6387;BME280;3226;42.162;24.756;2023-06-01T12:04:23;99547.63;;;25.87;35.89
6387;BME280;3226;42.162;24.756;2023-06-01T12:07:03;99550.47;;;25.61;35.73
6387;BME280;3226;42.162;24.756;2023-06-01T12:09:32;99542.56;;;25.66;34.97
6387;BME280;3226;42.162;24.756;2023-06-01T12:12:01;99527.88;;;25.69;35.87
6387;BME280;3226;42.162;24.756;2023-06-01T12:14:31;99521.81;;;25.74;35.71
6387;BME280;3226;42.162;24.756;2023-06-01T12:16:59;99498.50;;;25.74;36.03
6387;BME280;3226;42.162;24.756;2023-06-01T12:19:31;99525.25;;;25.93;36.37
6387;BME280;3226;42.162;24.756;2023-06-01T12:21:59;99522.44;;;26.11;35.28
6387;BME280;3226;42.162;24.756;2023-06-01T12:24:29;99513.09;;;25.90;35.38
6387;BME280;3226;42.162;24.756;2023-06-01T12:27:00;99497.25;;;26.01;36.14
6387;BME280;3226;42.162;24.756;2023-06-01T12:29:40;99505.41;;;26.06;36.12
6387;BME280;3226;42.162;24.756;2023-06-01T12:32:10;99508.19;;;25.87;35.85
6387;BME280;3226;42.162;24.756;2023-06-01T12:34:39;99510.41;;;25.90;36.23
6387;BME280;3226;42.162;24.756;2023-06-01T12:37:15;99512.53;;;26.12;36.45
6387;BME280;3226;42.162;24.756;2023-06-01T12:39:51;99515.00;;;26.02;35.03
6387;BME280;3226;42.162;24.756;2023-06-01T12:42:34;99516.25;;;25.99;35.01
6387;BME280;3226;42.162;24.756;2023-06-01T12:45:06;99515.00;;;26.02;34.94
6387;BME280;3226;42.162;24.756;2023-06-01T12:47:35;99518.00;;;26.05;35.16
6387;BME280;3226;42.162;24.756;2023-06-01T12:50:06;99514.75;;;26.03;35.54
6387;BME280;3226;42.162;24.756;2023-06-01T12:52:35;99507.25;;;25.93;34.72
6387;BME280;3226;42.162;24.756;2023-06-01T12:55:04;99517.91;;;26.12;33.19
6387;BME280;3226;42.162;24.756;2023-06-01T12:57:33;99522.91;;;26.08;33.29
6387;BME280;3226;42.162;24.756;2023-06-01T13:00:02;99518.03;;;26.17;32.71
6387;BME280;3226;42.162;24.756;2023-06-01T13:02:33;99511.25;;;26.03;32.23
6387;BME280;3226;42.162;24.756;2023-06-01T13:05:02;99518.09;;;25.98;33.03
6387;BME280;3226;42.162;24.756;2023-06-01T13:07:32;99520.34;;;26.02;33.50
6387;BME280;3226;42.162;24.756;2023-06-01T13:10:01;99512.63;;;25.93;34.30
6387;BME280;3226;42.162;24.756;2023-06-01T13:12:29;99502.50;;;26.07;34.96
6387;BME280;3226;42.162;24.756;2023-06-01T13:14:58;99512.44;;;26.31;35.50
6387;BME280;3226;42.162;24.756;2023-06-01T13:17:26;99514.78;;;26.27;33.06
6387;BME280;3226;42.162;24.756;2023-06-01T13:19:55;99509.63;;;26.25;32.98
6387;BME280;3226;42.162;24.756;2023-06-01T13:22:23;99495.75;;;26.29;33.60
6387;BME280;3226;42.162;24.756;2023-06-01T13:24:51;99504.72;;;26.46;32.77
6387;BME280;3226;42.162;24.756;2023-06-01T13:27:31;99498.69;;;26.39;33.76
6387;BME280;3226;42.162;24.756;2023-06-01T13:30:00;99501.31;;;26.51;33.25
6387;BME280;3226;42.162;24.756;2023-06-01T13:32:29;99502.00;;;26.70;34.15
6387;BME280;3226;42.162;24.756;2023-06-01T13:34:59;99495.22;;;26.67;34.05